createdAt,value
2023-03-26T00:01:07.597Z,6.60
2023-03-26T00:04:12.766Z,4.73
2023-03-26T00:07:18.019Z,5.00
2023-03-26T00:10:23.074Z,4.40
2023-03-26T00:13:28.194Z,4.83
2023-03-26T00:16:33.524Z,4.97
2023-03-26T00:19:38.993Z,4.57
2023-03-26T00:22:45.530Z,4.73
2023-03-26T00:25:52.087Z,4.70
2023-03-26T00:28:57.511Z,5.57
2023-03-26T00:32:02.840Z,5.67
2023-03-26T00:35:07.599Z,5.20
2023-03-26T00:38:12.909Z,5.10
2023-03-26T00:41:25.759Z,4.67
2023-03-26T00:44:31.014Z,5.07
2023-03-26T00:47:36.590Z,5.10
2023-03-26T00:50:42.988Z,5.10
2023-03-26T00:53:48.266Z,4.47
2023-03-26T00:56:56.000Z,4.67
2023-03-26T01:00:09.962Z,5.00
2023-03-26T01:03:24.860Z,3.87
2023-03-26T01:06:35.671Z,4.40
2023-03-26T01:09:42.817Z,4.07
2023-03-26T01:12:48.065Z,4.03
2023-03-26T01:15:53.361Z,4.60
2023-03-26T01:19:00.620Z,4.40
2023-03-26T01:22:06.212Z,4.83
2023-03-26T01:25:11.100Z,4.43
2023-03-26T01:28:17.506Z,5.13
2023-03-26T01:31:25.183Z,5.03
2023-03-26T01:34:30.650Z,5.13
2023-03-26T01:37:35.766Z,5.17
2023-03-26T01:40:42.840Z,4.60
2023-03-26T01:43:48.333Z,4.57
2023-03-26T01:46:53.652Z,4.40
2023-03-26T01:49:59.001Z,4.70
2023-03-26T01:53:03.958Z,4.50
2023-03-26T01:56:10.911Z,5.53
2023-03-26T01:59:16.368Z,4.00
2023-03-26T02:02:21.785Z,4.13
2023-03-26T02:05:27.371Z,4.40
2023-03-26T02:08:35.624Z,4.03
2023-03-26T02:11:40.920Z,4.43
2023-03-26T02:14:46.404Z,4.57
2023-03-26T02:17:52.414Z,4.47
2023-03-26T02:20:57.359Z,4.30
2023-03-26T02:24:04.102Z,4.87
2023-03-26T02:27:09.600Z,4.70
2023-03-26T02:30:14.996Z,4.93
2023-03-26T02:33:21.575Z,5.23
2023-03-26T02:36:28.153Z,5.47
2023-03-26T02:39:33.644Z,5.53
2023-03-26T02:42:38.800Z,5.70
2023-03-26T02:45:44.094Z,6.87
2023-03-26T02:48:49.942Z,7.33
2023-03-26T02:51:59.139Z,6.90
2023-03-26T02:55:04.578Z,5.03
2023-03-26T02:58:09.691Z,4.70
2023-03-26T03:01:18.510Z,5.27
2023-03-26T03:04:23.600Z,5.50
2023-03-26T03:07:28.984Z,4.70
2023-03-26T03:10:33.910Z,4.50
2023-03-26T03:13:39.496Z,4.07
2023-03-26T03:16:44.733Z,5.70
2023-03-26T03:19:50.349Z,4.97
2023-03-26T03:22:55.414Z,4.13
2023-03-26T03:26:00.612Z,4.40
2023-03-26T03:29:05.864Z,3.67
2023-03-26T03:32:11.086Z,3.63
2023-03-26T03:35:16.211Z,3.47
2023-03-26T03:38:21.782Z,3.40
2023-03-26T03:41:27.257Z,3.30
2023-03-26T03:44:32.289Z,3.20
2023-03-26T03:47:37.529Z,3.53
2023-03-26T03:50:43.044Z,4.73
2023-03-26T03:53:48.079Z,3.50
2023-03-26T03:56:53.240Z,2.83
2023-03-26T03:59:59.019Z,3.20
2023-03-26T04:03:06.264Z,2.70
2023-03-26T04:06:12.134Z,2.73
2023-03-26T04:09:17.161Z,2.87
2023-03-26T04:12:22.216Z,2.80
2023-03-26T04:15:27.355Z,3.37
2023-03-26T04:18:33.398Z,3.10
2023-03-26T04:21:39.323Z,3.77
2023-03-26T04:24:44.381Z,2.60
2023-03-26T04:27:49.790Z,2.90
2023-03-26T04:30:55.273Z,3.20
2023-03-26T04:34:01.574Z,3.13
2023-03-26T04:37:06.900Z,2.83
2023-03-26T04:40:11.981Z,2.93
2023-03-26T04:43:17.933Z,4.50
2023-03-26T04:46:23.599Z,3.43
2023-03-26T04:49:28.670Z,3.03
2023-03-26T04:52:33.915Z,2.87
2023-03-26T04:55:39.206Z,2.97
2023-03-26T04:58:44.365Z,2.57
2023-03-26T05:01:50.469Z,2.77
2023-03-26T05:04:57.116Z,2.40
2023-03-26T05:08:01.981Z,2.77
2023-03-26T05:11:11.307Z,2.43
2023-03-26T05:14:16.564Z,2.67
2023-03-26T05:17:21.611Z,2.77
2023-03-26T05:20:26.869Z,3.40
2023-03-26T05:23:31.973Z,2.60
2023-03-26T05:26:37.556Z,2.40
2023-03-26T05:29:42.525Z,2.83
2023-03-26T05:32:48.909Z,3.57
2023-03-26T05:35:54.330Z,3.30
2023-03-26T05:39:01.257Z,2.90
2023-03-26T05:42:07.784Z,2.80
2023-03-26T05:45:12.710Z,3.07
2023-03-26T05:48:17.908Z,3.30
2023-03-26T05:51:24.127Z,2.30
2023-03-26T05:54:29.036Z,2.40
2023-03-26T05:57:35.484Z,2.60
2023-03-26T06:00:40.785Z,2.33
2023-03-26T06:03:45.982Z,2.80
2023-03-26T06:06:52.703Z,2.20
2023-03-26T06:09:58.043Z,2.33
2023-03-26T06:13:03.429Z,2.50
2023-03-26T06:16:08.637Z,2.10
2023-03-26T06:19:14.321Z,2.10
2023-03-26T06:22:19.593Z,2.23
2023-03-26T06:25:25.090Z,1.70
2023-03-26T06:28:30.042Z,2.30
2023-03-26T06:31:35.362Z,2.67
2023-03-26T06:34:40.401Z,2.00
2023-03-26T06:37:45.886Z,2.13
2023-03-26T06:40:51.083Z,2.03
2023-03-26T06:43:55.920Z,2.30
2023-03-26T06:47:01.100Z,2.40
2023-03-26T06:50:06.651Z,2.63
2023-03-26T06:53:11.756Z,1.97
2023-03-26T06:56:16.882Z,3.73
2023-03-26T06:59:22.259Z,2.37
2023-03-26T07:02:27.694Z,2.33
2023-03-26T07:05:32.397Z,2.10
2023-03-26T07:08:37.648Z,2.63
2023-03-26T07:11:42.561Z,2.87
2023-03-26T07:14:47.311Z,1.87
2023-03-26T07:17:52.471Z,1.77
2023-03-26T07:20:57.716Z,2.63
2023-03-26T07:24:03.065Z,2.07
2023-03-26T07:27:08.121Z,2.37
2023-03-26T07:30:13.424Z,2.20
2023-03-26T07:33:18.349Z,1.93
2023-03-26T07:36:23.899Z,2.60
2023-03-26T07:39:28.888Z,5.43
2023-03-26T07:42:34.098Z,5.70
2023-03-26T07:45:39.586Z,5.20
2023-03-26T07:48:47.836Z,4.73
2023-03-26T07:51:52.755Z,3.50
2023-03-26T07:54:57.545Z,2.73
2023-03-26T07:58:03.006Z,2.50
2023-03-26T08:01:10.129Z,2.20
2023-03-26T08:04:23.632Z,3.10
2023-03-26T08:07:31.045Z,2.23
2023-03-26T08:10:36.237Z,3.10
2023-03-26T08:13:41.447Z,2.20
2023-03-26T08:16:47.887Z,2.20
2023-03-26T08:19:54.174Z,2.60
2023-03-26T08:22:59.311Z,2.30
2023-03-26T08:26:04.682Z,2.43
2023-03-26T08:29:10.022Z,3.03
2023-03-26T08:32:14.927Z,2.40
2023-03-26T08:35:20.487Z,2.73
2023-03-26T08:38:25.755Z,2.70
2023-03-26T08:41:30.836Z,2.40
2023-03-26T08:44:36.339Z,2.40
2023-03-26T08:47:41.313Z,2.10
2023-03-26T08:50:46.310Z,2.53
2023-03-26T08:53:51.269Z,2.87
2023-03-26T08:56:56.546Z,2.40
2023-03-26T09:00:03.014Z,3.57
2023-03-26T09:03:08.513Z,2.57
2023-03-26T09:06:13.313Z,2.47
2023-03-26T09:09:19.443Z,2.37
2023-03-26T09:12:25.479Z,2.73
2023-03-26T09:15:30.749Z,2.60
2023-03-26T09:18:36.166Z,2.73
2023-03-26T09:21:42.962Z,2.97
2023-03-26T09:24:47.997Z,3.27
2023-03-26T09:27:53.242Z,2.73
2023-03-26T09:30:58.526Z,2.83
2023-03-26T09:34:03.977Z,3.17
2023-03-26T09:37:08.995Z,3.17
2023-03-26T09:40:14.254Z,3.40
2023-03-26T09:43:19.370Z,3.03
2023-03-26T09:46:24.385Z,2.90
2023-03-26T09:49:29.551Z,3.10
2023-03-26T09:52:35.136Z,2.43
2023-03-26T09:55:40.806Z,3.10
2023-03-26T09:58:46.167Z,3.20
2023-03-26T10:01:51.544Z,3.60
2023-03-26T10:04:59.435Z,4.23
2023-03-26T10:08:04.689Z,3.60
2023-03-26T10:11:10.315Z,3.53
2023-03-26T10:14:15.333Z,3.77
2023-03-26T10:17:20.757Z,3.67
2023-03-26T10:20:25.892Z,4.93
2023-03-26T10:23:33.137Z,4.10
2023-03-26T10:26:38.315Z,4.03
2023-03-26T10:29:43.383Z,3.37
2023-03-26T10:32:48.433Z,3.67
2023-03-26T10:35:53.488Z,3.70
2023-03-26T10:38:58.585Z,3.20
2023-03-26T10:42:03.923Z,3.90
2023-03-26T10:45:09.522Z,4.43
2023-03-26T10:48:14.714Z,3.37
2023-03-26T10:51:21.941Z,4.57
2023-03-26T10:54:26.941Z,6.00
2023-03-26T10:57:32.086Z,3.97
2023-03-26T11:00:37.077Z,3.57
2023-03-26T11:03:43.847Z,3.73
2023-03-26T11:06:49.112Z,4.00
2023-03-26T11:09:54.723Z,4.37
2023-03-26T11:12:59.487Z,3.40
2023-03-26T11:16:04.762Z,4.17
2023-03-26T11:19:09.839Z,4.03
2023-03-26T11:22:17.350Z,3.43
2023-03-26T11:25:22.590Z,3.47
2023-03-26T11:28:27.680Z,3.80
2023-03-26T11:31:33.121Z,3.83
2023-03-26T11:34:37.998Z,3.60
2023-03-26T11:37:43.202Z,3.10
2023-03-26T11:40:50.901Z,3.77
2023-03-26T11:43:56.497Z,3.23
2023-03-26T11:47:04.068Z,3.60
2023-03-26T11:50:09.023Z,4.23
2023-03-26T11:53:14.662Z,4.80
2023-03-26T11:56:19.641Z,3.80
2023-03-26T11:59:25.471Z,3.87
2023-03-26T12:02:32.759Z,3.37
2023-03-26T12:05:38.312Z,4.93
2023-03-26T12:08:43.800Z,3.23
2023-03-26T12:11:49.073Z,4.23
2023-03-26T12:14:54.325Z,3.40
2023-03-26T12:17:59.458Z,3.30
2023-03-26T12:21:08.775Z,3.40
2023-03-26T12:24:14.738Z,3.60
2023-03-26T12:27:20.603Z,3.77
2023-03-26T12:30:26.487Z,5.60
2023-03-26T12:33:34.291Z,4.27
2023-03-26T12:36:39.766Z,6.03
2023-03-26T12:40:07.432Z,4.03
2023-03-26T12:44:48.825Z,5.60
2023-03-26T12:47:55.672Z,5.47
2023-03-26T12:50:03.503Z,5.77
2023-03-26T12:53:09.017Z,6.20
2023-03-26T12:56:17.346Z,6.57
2023-03-26T12:59:22.574Z,7.93
2023-03-26T13:02:29.468Z,9.97
2023-03-26T13:05:35.072Z,7.13
2023-03-26T13:08:40.521Z,5.93
2023-03-26T13:11:45.867Z,8.77
2023-03-26T13:14:51.141Z,9.67
2023-03-26T13:17:56.237Z,11.20
2023-03-26T13:21:02.025Z,7.03
2023-03-26T13:24:07.175Z,7.30
2023-03-26T13:27:12.455Z,8.07
2023-03-26T13:30:17.523Z,7.43
2023-03-26T13:33:22.794Z,8.17
2023-03-26T13:36:27.919Z,7.53
2023-03-26T13:39:33.361Z,8.73
2023-03-26T13:42:38.257Z,7.10
2023-03-26T13:45:43.569Z,7.10
2023-03-26T13:48:49.082Z,7.47
2023-03-26T13:51:54.888Z,7.53
2023-03-26T13:55:00.585Z,8.67
2023-03-26T14:01:12.386Z,7.70
2023-03-26T14:04:19.281Z,8.37
2023-03-26T14:07:24.949Z,9.17
2023-03-26T14:10:30.635Z,7.67
2023-03-26T14:13:35.894Z,7.53
2023-03-26T14:16:41.555Z,8.63
2023-03-26T14:19:49.565Z,14.97
2023-03-26T14:22:55.024Z,17.50
2023-03-26T14:26:01.150Z,12.23
2023-03-26T14:29:06.508Z,11.23
2023-03-26T14:32:11.707Z,6.73
2023-03-26T14:35:16.591Z,7.57
2023-03-26T14:38:21.709Z,5.13
2023-03-26T14:41:26.711Z,5.03
2023-03-26T14:44:48.922Z,5.93
2023-03-26T14:47:54.248Z,6.73
2023-03-26T14:50:59.090Z,5.63
2023-03-26T14:54:04.438Z,5.93
2023-03-26T14:57:09.858Z,6.33
2023-03-26T15:00:15.941Z,5.43
2023-03-26T15:03:20.972Z,4.30
2023-03-26T15:06:25.792Z,4.73
2023-03-26T15:09:31.103Z,5.00
2023-03-26T15:12:36.129Z,5.40
2023-03-26T15:15:41.638Z,6.83
2023-03-26T15:18:46.734Z,7.17
2023-03-26T15:21:52.178Z,6.07
2023-03-26T15:24:57.576Z,5.57
2023-03-26T15:28:02.487Z,5.20
2023-03-26T15:31:09.761Z,4.47
2023-03-26T15:34:15.164Z,6.50
2023-03-26T15:37:22.114Z,5.23
2023-03-26T15:40:27.135Z,5.50
2023-03-26T15:43:32.197Z,3.10
2023-03-26T15:46:37.583Z,5.43
2023-03-26T15:49:43.346Z,5.33
2023-03-26T15:52:49.032Z,7.37
2023-03-26T15:55:54.065Z,4.20
2023-03-26T15:58:59.414Z,4.77
2023-03-26T16:02:04.760Z,6.30
2023-03-26T16:05:09.794Z,5.87
2023-03-26T16:08:15.626Z,3.73
2023-03-26T16:11:20.822Z,4.07
2023-03-26T16:14:25.717Z,3.70
2023-03-26T16:17:32.175Z,4.97
2023-03-26T16:20:37.671Z,4.80
2023-03-26T16:23:47.222Z,6.03
2023-03-26T16:26:53.345Z,5.27
2023-03-26T16:29:58.348Z,6.10
2023-03-26T16:33:04.100Z,3.77
2023-03-26T16:36:09.542Z,6.30
2023-03-26T16:39:14.749Z,5.33
2023-03-26T16:42:19.677Z,4.63
2023-03-26T16:45:24.630Z,4.87
2023-03-26T16:48:29.745Z,5.37
2023-03-26T16:51:35.320Z,6.23
2023-03-26T16:54:41.026Z,6.20
2023-03-26T16:57:46.676Z,7.77
2023-03-26T17:00:52.510Z,10.67
2023-03-26T17:03:57.924Z,9.50
2023-03-26T17:07:03.373Z,8.00
2023-03-26T17:10:08.793Z,9.83
2023-03-26T17:13:14.046Z,9.23
2023-03-26T17:16:19.270Z,10.93
2023-03-26T17:19:24.532Z,8.33
2023-03-26T17:22:29.781Z,8.93
2023-03-26T17:25:34.907Z,8.83
2023-03-26T17:28:40.058Z,10.03
2023-03-26T17:31:45.052Z,9.00
2023-03-26T17:34:49.870Z,8.83
2023-03-26T17:37:54.729Z,7.67
2023-03-26T17:41:00.244Z,8.70
2023-03-26T17:44:05.328Z,7.03
2023-03-26T17:47:10.341Z,8.00
2023-03-26T17:50:15.177Z,7.67
2023-03-26T17:53:20.197Z,10.17
2023-03-26T17:56:27.986Z,8.13
2023-03-26T17:59:33.142Z,6.73
2023-03-26T18:02:39.472Z,6.40
2023-03-26T18:05:44.601Z,6.87
2023-03-26T18:08:49.917Z,4.40
2023-03-26T18:11:54.813Z,5.80
2023-03-26T18:14:59.765Z,4.53
2023-03-26T18:18:04.908Z,3.33
2023-03-26T18:21:10.088Z,4.43
2023-03-26T18:24:15.098Z,6.03
2023-03-26T18:27:20.357Z,4.70
2023-03-26T18:30:26.108Z,5.63
2023-03-26T18:33:30.817Z,6.73
2023-03-26T18:36:38.544Z,4.60
2023-03-26T18:39:43.865Z,5.83
2023-03-26T18:42:48.728Z,5.53
2023-03-26T18:45:54.187Z,4.27
2023-03-26T18:48:59.997Z,4.67
2023-03-26T18:52:05.006Z,4.23
2023-03-26T18:54:37.081Z,6.73
2023-03-26T18:57:15.046Z,4.27
2023-03-26T18:59:45.366Z,4.30
2023-03-26T19:02:14.513Z,6.03
2023-03-26T19:05:19.684Z,4.43
2023-03-26T19:08:24.395Z,5.47
2023-03-26T19:11:30.111Z,5.33
2023-03-26T19:14:37.041Z,9.73
2023-03-26T19:17:42.113Z,6.70
2023-03-26T19:20:47.458Z,5.73
2023-03-26T19:23:52.583Z,8.00
2023-03-26T19:26:57.661Z,5.30
2023-03-26T19:30:02.767Z,8.00
2023-03-26T19:33:12.814Z,7.63
2023-03-26T19:36:18.828Z,6.57
2023-03-26T19:39:36.485Z,5.37
2023-03-26T19:42:42.905Z,5.90
2023-03-26T19:45:59.717Z,5.53
2023-03-26T19:49:05.964Z,5.20
2023-03-26T19:52:10.970Z,5.80
2023-03-26T19:55:16.626Z,6.90
2023-03-26T20:01:17.115Z,5.57
2023-03-26T20:04:22.035Z,5.57
2023-03-26T20:07:35.253Z,3.43
2023-03-26T20:10:41.563Z,3.77
2023-03-26T20:13:46.372Z,4.70
2023-03-26T20:16:51.460Z,5.00
2023-03-26T20:19:56.609Z,6.10
2023-03-26T20:23:02.408Z,3.33
2023-03-26T20:26:08.012Z,4.10
2023-03-26T20:29:13.903Z,3.17
2023-03-26T20:32:19.098Z,3.53
2023-03-26T20:35:36.218Z,3.70
2023-03-26T20:38:41.998Z,4.33
2023-03-26T20:41:47.142Z,4.20
2023-03-26T20:44:52.060Z,4.07
2023-03-26T20:47:57.584Z,4.03
2023-03-26T20:51:03.291Z,4.07
2023-03-26T20:54:11.206Z,4.50
2023-03-26T20:57:16.303Z,2.67
2023-03-26T21:00:22.462Z,2.03
2023-03-26T21:03:27.392Z,3.00
2023-03-26T21:06:32.558Z,3.47
2023-03-26T21:09:37.852Z,3.37
2023-03-26T21:12:45.625Z,2.33
2023-03-26T21:15:50.681Z,2.63
2023-03-26T21:18:57.627Z,2.50
2023-03-26T21:22:03.380Z,2.93
2023-03-26T21:25:08.848Z,1.43
2023-03-26T21:28:13.572Z,1.90
2023-03-26T21:31:19.278Z,1.07
2023-03-26T21:34:24.332Z,1.20
2023-03-26T21:37:29.726Z,1.60
2023-03-26T21:40:35.252Z,0.87
2023-03-26T21:43:41.673Z,0.90
2023-03-26T21:46:46.955Z,0.63
2023-03-26T21:49:52.354Z,1.03
2023-03-26T21:52:57.510Z,1.27
2023-03-26T21:56:02.743Z,0.67
2023-03-26T21:59:07.995Z,0.50
2023-03-26T22:02:13.235Z,0.60
2023-03-26T22:05:18.395Z,0.57
2023-03-26T22:08:23.618Z,0.73
2023-03-26T22:11:28.569Z,1.57
2023-03-26T22:14:33.830Z,0.50
2023-03-26T22:17:39.550Z,1.57
2023-03-26T22:20:46.679Z,0.57
2023-03-26T22:23:54.722Z,0.97
2023-03-26T22:27:00.016Z,0.73
2023-03-26T22:30:05.840Z,0.70
2023-03-26T22:33:12.244Z,1.43
2023-03-26T22:36:23.143Z,1.87
2023-03-26T22:39:29.163Z,1.30
2023-03-26T22:42:34.386Z,1.90
2023-03-26T22:45:39.612Z,1.60
2023-03-26T22:48:45.809Z,1.60
2023-03-26T22:51:51.575Z,1.17
2023-03-26T22:54:59.035Z,1.10
2023-03-26T22:58:04.088Z,1.37
2023-03-26T23:01:09.219Z,0.80
2023-03-26T23:04:31.302Z,1.03
2023-03-26T23:07:37.493Z,1.87
2023-03-26T23:10:42.647Z,1.77
2023-03-26T23:13:48.452Z,0.90
2023-03-26T23:16:53.431Z,1.07
2023-03-26T23:19:58.290Z,1.43
2023-03-26T23:23:03.456Z,1.10
2023-03-26T23:26:10.793Z,0.97
2023-03-26T23:29:15.688Z,1.00
2023-03-26T23:32:23.789Z,0.97
2023-03-26T23:35:30.083Z,1.07
2023-03-26T23:38:43.052Z,1.13
2023-03-26T23:41:48.898Z,1.03
2023-03-26T23:44:56.423Z,0.80
2023-03-26T23:48:02.375Z,0.87
2023-03-26T23:51:09.714Z,1.17
2023-03-26T23:54:15.272Z,0.80
2023-03-26T23:57:20.681Z,0.87
